sensor_id;sensor_type;location;lat;lon;timestamp;P1;durP1;ratioP1;P2;durP2;ratioP2
19651;SDS011;9974;52.146;14.668;2023-03-01T00:01:30;21.73;;;13.67;;
19651;SDS011;9974;52.146;14.668;2023-03-01T00:03:57;22.37;;;13.63;;
19651;SDS011;9974;52.146;14.668;2023-03-01T00:06:24;30.30;;;14.37;;
19651;SDS011;9974;52.146;14.668;2023-03-01T00:08:50;27.73;;;14.37;;
19651;SDS011;9974;52.146;14.668;2023-03-01T00:11:18;23.70;;;13.33;;
19651;SDS011;9974;52.146;14.668;2023-03-01T00:13:50;26.03;;;14.00;;
19651;SDS011;9974;52.146;14.668;2023-03-01T00:16:21;22.10;;;13.30;;
19651;SDS011;9974;52.146;14.668;2023-03-01T00:18:51;28.70;;;14.63;;
19651;SDS011;9974;52.146;14.668;2023-03-01T00:21:19;29.77;;;15.00;;
19651;SDS011;9974;52.146;14.668;2023-03-01T00:23:47;20.53;;;13.23;;
19651;SDS011;9974;52.146;14.668;2023-03-01T00:26:13;20.87;;;12.73;;
19651;SDS011;9974;52.146;14.668;2023-03-01T00:28:40;26.37;;;14.87;;
19651;SDS011;9974;52.146;14.668;2023-03-01T00:31:08;24.17;;;13.93;;
19651;SDS011;9974;52.146;14.668;2023-03-01T00:33:38;24.17;;;13.10;;
19651;SDS011;9974;52.146;14.668;2023-03-01T00:36:04;22.57;;;13.63;;
19651;SDS011;9974;52.146;14.668;2023-03-01T00:38:34;22.57;;;14.37;;
19651;SDS011;9974;52.146;14.668;2023-03-01T00:41:04;23.30;;;14.83;;
19651;SDS011;9974;52.146;14.668;2023-03-01T00:43:31;32.90;;;14.90;;
19651;SDS011;9974;52.146;14.668;2023-03-01T00:46:01;27.17;;;13.47;;
19651;SDS011;9974;52.146;14.668;2023-03-01T00:48:32;20.43;;;13.10;;
19651;SDS011;9974;52.146;14.668;2023-03-01T00:51:04;26.43;;;13.77;;
19651;SDS011;9974;52.146;14.668;2023-03-01T00:53:31;28.20;;;14.60;;
19651;SDS011;9974;52.146;14.668;2023-03-01T00:55:57;23.37;;;14.50;;
19651;SDS011;9974;52.146;14.668;2023-03-01T00:58:23;28.17;;;14.63;;
19651;SDS011;9974;52.146;14.668;2023-03-01T01:00:50;24.77;;;14.37;;
19651;SDS011;9974;52.146;14.668;2023-03-01T01:03:17;26.87;;;15.27;;
19651;SDS011;9974;52.146;14.668;2023-03-01T01:05:43;29.60;;;15.17;;
19651;SDS011;9974;52.146;14.668;2023-03-01T01:08:09;24.67;;;14.03;;
19651;SDS011;9974;52.146;14.668;2023-03-01T01:10:35;24.23;;;14.03;;
19651;SDS011;9974;52.146;14.668;2023-03-01T01:13:02;26.37;;;15.13;;
19651;SDS011;9974;52.146;14.668;2023-03-01T01:15:28;22.17;;;14.07;;
19651;SDS011;9974;52.146;14.668;2023-03-01T01:17:54;25.40;;;14.17;;
19651;SDS011;9974;52.146;14.668;2023-03-01T01:20:20;23.13;;;14.13;;
19651;SDS011;9974;52.146;14.668;2023-03-01T01:22:46;23.40;;;14.50;;
19651;SDS011;9974;52.146;14.668;2023-03-01T01:25:12;24.43;;;14.67;;
19651;SDS011;9974;52.146;14.668;2023-03-01T01:27:38;26.50;;;15.43;;
19651;SDS011;9974;52.146;14.668;2023-03-01T01:30:05;26.30;;;15.70;;
19651;SDS011;9974;52.146;14.668;2023-03-01T01:32:31;25.40;;;15.60;;
19651;SDS011;9974;52.146;14.668;2023-03-01T01:34:57;24.50;;;14.33;;
19651;SDS011;9974;52.146;14.668;2023-03-01T01:37:23;23.83;;;14.37;;
19651;SDS011;9974;52.146;14.668;2023-03-01T01:39:55;25.50;;;15.33;;
19651;SDS011;9974;52.146;14.668;2023-03-01T01:42:23;23.40;;;13.50;;
19651;SDS011;9974;52.146;14.668;2023-03-01T01:45:15;26.37;;;15.57;;
19651;SDS011;9974;52.146;14.668;2023-03-01T01:47:50;27.27;;;15.37;;
19651;SDS011;9974;52.146;14.668;2023-03-01T01:50:17;25.77;;;15.73;;
19651;SDS011;9974;52.146;14.668;2023-03-01T01:52:44;22.33;;;13.87;;
19651;SDS011;9974;52.146;14.668;2023-03-01T01:55:11;26.77;;;15.17;;
19651;SDS011;9974;52.146;14.668;2023-03-01T01:57:42;26.17;;;15.40;;
19651;SDS011;9974;52.146;14.668;2023-03-01T02:00:12;22.97;;;14.03;;
19651;SDS011;9974;52.146;14.668;2023-03-01T02:02:41;26.77;;;14.03;;
19651;SDS011;9974;52.146;14.668;2023-03-01T02:07:59;25.87;;;14.77;;
19651;SDS011;9974;52.146;14.668;2023-03-01T02:10:25;22.20;;;13.83;;
19651;SDS011;9974;52.146;14.668;2023-03-01T02:12:52;24.90;;;14.30;;
19651;SDS011;9974;52.146;14.668;2023-03-01T02:15:20;21.37;;;13.57;;
19651;SDS011;9974;52.146;14.668;2023-03-01T02:17:48;24.00;;;13.80;;
19651;SDS011;9974;52.146;14.668;2023-03-01T02:20:21;27.70;;;14.30;;
19651;SDS011;9974;52.146;14.668;2023-03-01T02:22:52;24.90;;;13.77;;
19651;SDS011;9974;52.146;14.668;2023-03-01T02:28:20;22.47;;;12.93;;
19651;SDS011;9974;52.146;14.668;2023-03-01T02:30:58;25.77;;;14.23;;
19651;SDS011;9974;52.146;14.668;2023-03-01T02:33:43;25.03;;;14.50;;
19651;SDS011;9974;52.146;14.668;2023-03-01T02:36:10;23.83;;;14.27;;
19651;SDS011;9974;52.146;14.668;2023-03-01T02:38:42;23.67;;;13.37;;
19651;SDS011;9974;52.146;14.668;2023-03-01T02:41:08;24.00;;;14.43;;
19651;SDS011;9974;52.146;14.668;2023-03-01T02:43:37;24.03;;;14.00;;
19651;SDS011;9974;52.146;14.668;2023-03-01T02:46:04;24.60;;;13.67;;
19651;SDS011;9974;52.146;14.668;2023-03-01T02:48:40;23.83;;;14.43;;
19651;SDS011;9974;52.146;14.668;2023-03-01T02:54:07;25.40;;;13.73;;
19651;SDS011;9974;52.146;14.668;2023-03-01T02:56:34;21.93;;;13.13;;
19651;SDS011;9974;52.146;14.668;2023-03-01T02:59:00;27.80;;;16.47;;
19651;SDS011;9974;52.146;14.668;2023-03-01T03:01:27;29.60;;;14.90;;
19651;SDS011;9974;52.146;14.668;2023-03-01T03:04:02;27.73;;;15.60;;
19651;SDS011;9974;52.146;14.668;2023-03-01T03:06:33;24.70;;;15.57;;
19651;SDS011;9974;52.146;14.668;2023-03-01T03:08:59;26.17;;;15.90;;
19651;SDS011;9974;52.146;14.668;2023-03-01T03:11:25;25.53;;;15.53;;
19651;SDS011;9974;52.146;14.668;2023-03-01T03:13:52;26.10;;;16.07;;
19651;SDS011;9974;52.146;14.668;2023-03-01T03:16:18;27.17;;;16.93;;
19651;SDS011;9974;52.146;14.668;2023-03-01T03:18:45;27.47;;;15.67;;
19651;SDS011;9974;52.146;14.668;2023-03-01T03:21:11;25.77;;;15.50;;
19651;SDS011;9974;52.146;14.668;2023-03-01T03:23:38;27.43;;;15.60;;
19651;SDS011;9974;52.146;14.668;2023-03-01T03:26:04;26.27;;;16.17;;
19651;SDS011;9974;52.146;14.668;2023-03-01T03:28:31;24.97;;;16.20;;
19651;SDS011;9974;52.146;14.668;2023-03-01T03:30:59;31.27;;;17.00;;
19651;SDS011;9974;52.146;14.668;2023-03-01T03:33:29;25.87;;;15.43;;
19651;SDS011;9974;52.146;14.668;2023-03-01T03:35:55;27.50;;;16.80;;
19651;SDS011;9974;52.146;14.668;2023-03-01T03:38:21;27.90;;;17.07;;
19651;SDS011;9974;52.146;14.668;2023-03-01T03:40:51;26.00;;;17.20;;
19651;SDS011;9974;52.146;14.668;2023-03-01T03:43:28;23.33;;;15.20;;
19651;SDS011;9974;52.146;14.668;2023-03-01T03:45:56;30.37;;;16.63;;
19651;SDS011;9974;52.146;14.668;2023-03-01T03:48:22;26.77;;;16.73;;
19651;SDS011;9974;52.146;14.668;2023-03-01T03:50:49;27.43;;;17.47;;
19651;SDS011;9974;52.146;14.668;2023-03-01T03:53:19;26.50;;;16.80;;
19651;SDS011;9974;52.146;14.668;2023-03-01T03:55:47;30.67;;;17.83;;
19651;SDS011;9974;52.146;14.668;2023-03-01T03:58:16;30.20;;;17.20;;
19651;SDS011;9974;52.146;14.668;2023-03-01T04:00:44;33.37;;;17.03;;
19651;SDS011;9974;52.146;14.668;2023-03-01T04:03:13;32.13;;;17.50;;
19651;SDS011;9974;52.146;14.668;2023-03-01T04:05:40;32.20;;;18.40;;
19651;SDS011;9974;52.146;14.668;2023-03-01T04:08:07;28.30;;;17.80;;
19651;SDS011;9974;52.146;14.668;2023-03-01T04:10:38;27.93;;;16.80;;
19651;SDS011;9974;52.146;14.668;2023-03-01T04:13:06;29.73;;;15.67;;
19651;SDS011;9974;52.146;14.668;2023-03-01T04:15:42;27.00;;;17.40;;
19651;SDS011;9974;52.146;14.668;2023-03-01T04:18:09;26.47;;;15.73;;
19651;SDS011;9974;52.146;14.668;2023-03-01T04:20:37;24.80;;;15.77;;
19651;SDS011;9974;52.146;14.668;2023-03-01T04:23:05;31.27;;;17.43;;
19651;SDS011;9974;52.146;14.668;2023-03-01T04:25:50;26.57;;;16.37;;
19651;SDS011;9974;52.146;14.668;2023-03-01T04:31:16;28.57;;;16.20;;
19651;SDS011;9974;52.146;14.668;2023-03-01T04:33:53;28.40;;;16.77;;
19651;SDS011;9974;52.146;14.668;2023-03-01T04:36:29;27.97;;;17.00;;
19651;SDS011;9974;52.146;14.668;2023-03-01T04:38:55;29.50;;;17.77;;
19651;SDS011;9974;52.146;14.668;2023-03-01T04:41:22;27.67;;;16.17;;
19651;SDS011;9974;52.146;14.668;2023-03-01T04:43:49;27.20;;;16.97;;
19651;SDS011;9974;52.146;14.668;2023-03-01T04:46:16;29.93;;;16.13;;
19651;SDS011;9974;52.146;14.668;2023-03-01T04:48:44;30.33;;;16.07;;
19651;SDS011;9974;52.146;14.668;2023-03-01T04:51:10;27.23;;;15.93;;
19651;SDS011;9974;52.146;14.668;2023-03-01T04:53:40;27.87;;;16.03;;
19651;SDS011;9974;52.146;14.668;2023-03-01T04:56:07;27.00;;;15.90;;
19651;SDS011;9974;52.146;14.668;2023-03-01T04:58:33;30.27;;;16.73;;
19651;SDS011;9974;52.146;14.668;2023-03-01T05:00:59;33.87;;;16.73;;
19651;SDS011;9974;52.146;14.668;2023-03-01T05:03:25;28.13;;;16.03;;
19651;SDS011;9974;52.146;14.668;2023-03-01T05:05:52;24.97;;;13.40;;
19651;SDS011;9974;52.146;14.668;2023-03-01T05:08:18;21.03;;;13.93;;
19651;SDS011;9974;52.146;14.668;2023-03-01T05:10:46;24.07;;;14.03;;
19651;SDS011;9974;52.146;14.668;2023-03-01T05:13:17;23.43;;;13.93;;
19651;SDS011;9974;52.146;14.668;2023-03-01T05:16:00;22.27;;;13.57;;
19651;SDS011;9974;52.146;14.668;2023-03-01T05:18:28;27.63;;;14.90;;
19651;SDS011;9974;52.146;14.668;2023-03-01T05:20:56;25.30;;;14.87;;
19651;SDS011;9974;52.146;14.668;2023-03-01T05:23:28;25.50;;;15.17;;
19651;SDS011;9974;52.146;14.668;2023-03-01T05:25:57;33.37;;;14.20;;
19651;SDS011;9974;52.146;14.668;2023-03-01T05:28:24;25.50;;;14.97;;
19651;SDS011;9974;52.146;14.668;2023-03-01T05:30:51;26.57;;;15.93;;
19651;SDS011;9974;52.146;14.668;2023-03-01T05:33:17;29.87;;;16.27;;
19651;SDS011;9974;52.146;14.668;2023-03-01T05:35:44;26.83;;;14.80;;
19651;SDS011;9974;52.146;14.668;2023-03-01T05:38:10;28.20;;;16.27;;
19651;SDS011;9974;52.146;14.668;2023-03-01T05:40:45;27.30;;;16.37;;
19651;SDS011;9974;52.146;14.668;2023-03-01T05:43:12;24.47;;;15.17;;
19651;SDS011;9974;52.146;14.668;2023-03-01T05:45:40;28.60;;;15.83;;
19651;SDS011;9974;52.146;14.668;2023-03-01T05:48:06;31.27;;;16.87;;
19651;SDS011;9974;52.146;14.668;2023-03-01T05:50:36;32.33;;;18.67;;
19651;SDS011;9974;52.146;14.668;2023-03-01T05:53:04;29.80;;;16.57;;
19651;SDS011;9974;52.146;14.668;2023-03-01T05:55:32;30.07;;;17.50;;
19651;SDS011;9974;52.146;14.668;2023-03-01T05:58:04;26.30;;;16.70;;
19651;SDS011;9974;52.146;14.668;2023-03-01T06:00:32;27.83;;;17.27;;
19651;SDS011;9974;52.146;14.668;2023-03-01T06:02:58;34.57;;;17.37;;
19651;SDS011;9974;52.146;14.668;2023-03-01T06:05:25;28.70;;;17.27;;
19651;SDS011;9974;52.146;14.668;2023-03-01T06:07:51;33.43;;;17.37;;
19651;SDS011;9974;52.146;14.668;2023-03-01T06:10:18;31.90;;;16.83;;
19651;SDS011;9974;52.146;14.668;2023-03-01T06:12:45;31.20;;;17.27;;
19651;SDS011;9974;52.146;14.668;2023-03-01T06:15:12;32.17;;;18.97;;
19651;SDS011;9974;52.146;14.668;2023-03-01T06:17:39;35.00;;;18.40;;
19651;SDS011;9974;52.146;14.668;2023-03-01T06:20:07;30.57;;;16.87;;
19651;SDS011;9974;52.146;14.668;2023-03-01T06:22:38;36.97;;;18.37;;
19651;SDS011;9974;52.146;14.668;2023-03-01T06:25:04;33.93;;;18.93;;
19651;SDS011;9974;52.146;14.668;2023-03-01T06:27:31;31.30;;;18.97;;
19651;SDS011;9974;52.146;14.668;2023-03-01T06:29:57;31.37;;;17.23;;
19651;SDS011;9974;52.146;14.668;2023-03-01T06:32:23;31.53;;;18.10;;
19651;SDS011;9974;52.146;14.668;2023-03-01T06:34:49;27.53;;;18.07;;
19651;SDS011;9974;52.146;14.668;2023-03-01T06:37:15;32.33;;;18.53;;
19651;SDS011;9974;52.146;14.668;2023-03-01T06:39:41;33.80;;;19.07;;
19651;SDS011;9974;52.146;14.668;2023-03-01T06:42:08;36.40;;;19.33;;
19651;SDS011;9974;52.146;14.668;2023-03-01T06:44:37;29.53;;;20.47;;
19651;SDS011;9974;52.146;14.668;2023-03-01T06:47:03;35.33;;;20.07;;
19651;SDS011;9974;52.146;14.668;2023-03-01T06:49:29;40.13;;;20.47;;
19651;SDS011;9974;52.146;14.668;2023-03-01T06:51:56;36.67;;;21.77;;
19651;SDS011;9974;52.146;14.668;2023-03-01T06:54:22;33.93;;;20.70;;
19651;SDS011;9974;52.146;14.668;2023-03-01T06:56:49;40.30;;;21.47;;
19651;SDS011;9974;52.146;14.668;2023-03-01T06:59:15;33.87;;;21.30;;
19651;SDS011;9974;52.146;14.668;2023-03-01T07:01:42;38.70;;;22.53;;
19651;SDS011;9974;52.146;14.668;2023-03-01T07:04:08;36.73;;;22.23;;
19651;SDS011;9974;52.146;14.668;2023-03-01T07:06:35;38.77;;;23.37;;
19651;SDS011;9974;52.146;14.668;2023-03-01T07:09:01;39.93;;;23.67;;
19651;SDS011;9974;52.146;14.668;2023-03-01T07:11:27;47.23;;;26.70;;
19651;SDS011;9974;52.146;14.668;2023-03-01T07:13:53;40.67;;;23.87;;
19651;SDS011;9974;52.146;14.668;2023-03-01T07:16:20;39.00;;;24.60;;
19651;SDS011;9974;52.146;14.668;2023-03-01T07:18:46;46.10;;;25.63;;
19651;SDS011;9974;52.146;14.668;2023-03-01T07:21:13;41.50;;;22.80;;
19651;SDS011;9974;52.146;14.668;2023-03-01T07:23:41;36.23;;;22.97;;
19651;SDS011;9974;52.146;14.668;2023-03-01T07:26:07;41.37;;;24.67;;
19651;SDS011;9974;52.146;14.668;2023-03-01T07:28:33;37.97;;;23.53;;
19651;SDS011;9974;52.146;14.668;2023-03-01T07:31:01;41.23;;;24.77;;
19651;SDS011;9974;52.146;14.668;2023-03-01T07:33:28;34.97;;;22.13;;
19651;SDS011;9974;52.146;14.668;2023-03-01T07:35:57;45.03;;;23.53;;
19651;SDS011;9974;52.146;14.668;2023-03-01T07:38:25;42.80;;;22.80;;
19651;SDS011;9974;52.146;14.668;2023-03-01T07:40:51;36.97;;;20.73;;
19651;SDS011;9974;52.146;14.668;2023-03-01T07:43:17;41.00;;;21.70;;
19651;SDS011;9974;52.146;14.668;2023-03-01T07:45:43;35.73;;;20.97;;
19651;SDS011;9974;52.146;14.668;2023-03-01T07:48:09;33.90;;;19.63;;
19651;SDS011;9974;52.146;14.668;2023-03-01T07:50:35;34.10;;;18.13;;
19651;SDS011;9974;52.146;14.668;2023-03-01T07:53:01;32.87;;;19.23;;
19651;SDS011;9974;52.146;14.668;2023-03-01T07:55:28;30.50;;;18.37;;
19651;SDS011;9974;52.146;14.668;2023-03-01T07:57:54;35.00;;;19.20;;
19651;SDS011;9974;52.146;14.668;2023-03-01T08:00:20;32.10;;;18.50;;
19651;SDS011;9974;52.146;14.668;2023-03-01T08:02:46;32.23;;;18.70;;
19651;SDS011;9974;52.146;14.668;2023-03-01T08:05:12;32.23;;;18.50;;
19651;SDS011;9974;52.146;14.668;2023-03-01T08:07:37;31.85;;;19.13;;
19651;SDS011;9974;52.146;14.668;2023-03-01T08:10:04;33.25;;;16.98;;
19651;SDS011;9974;52.146;14.668;2023-03-01T08:12:30;30.10;;;17.27;;
19651;SDS011;9974;52.146;14.668;2023-03-01T08:14:55;26.08;;;16.55;;
19651;SDS011;9974;52.146;14.668;2023-03-01T08:17:22;26.70;;;18.02;;
19651;SDS011;9974;52.146;14.668;2023-03-01T08:19:48;33.63;;;18.08;;
19651;SDS011;9974;52.146;14.668;2023-03-01T08:22:14;32.22;;;16.33;;
19651;SDS011;9974;52.146;14.668;2023-03-01T08:24:40;31.63;;;17.15;;
19651;SDS011;9974;52.146;14.668;2023-03-01T08:27:06;29.33;;;17.48;;
19651;SDS011;9974;52.146;14.668;2023-03-01T08:29:32;29.13;;;18.00;;
19651;SDS011;9974;52.146;14.668;2023-03-01T08:31:59;32.42;;;18.27;;
19651;SDS011;9974;52.146;14.668;2023-03-01T08:34:24;28.77;;;16.48;;
19651;SDS011;9974;52.146;14.668;2023-03-01T08:36:51;26.63;;;15.63;;
19651;SDS011;9974;52.146;14.668;2023-03-01T08:39:17;31.98;;;17.50;;
19651;SDS011;9974;52.146;14.668;2023-03-01T08:41:45;27.88;;;17.63;;
19651;SDS011;9974;52.146;14.668;2023-03-01T08:44:12;26.60;;;15.90;;
19651;SDS011;9974;52.146;14.668;2023-03-01T08:46:41;27.30;;;16.13;;
19651;SDS011;9974;52.146;14.668;2023-03-01T08:49:09;29.42;;;15.80;;
19651;SDS011;9974;52.146;14.668;2023-03-01T08:51:38;24.23;;;16.58;;
19651;SDS011;9974;52.146;14.668;2023-03-01T08:54:04;29.23;;;17.55;;
19651;SDS011;9974;52.146;14.668;2023-03-01T08:56:34;28.90;;;17.60;;
19651;SDS011;9974;52.146;14.668;2023-03-01T08:59:00;30.85;;;17.00;;
19651;SDS011;9974;52.146;14.668;2023-03-01T09:01:26;30.02;;;16.90;;
19651;SDS011;9974;52.146;14.668;2023-03-01T09:03:52;30.08;;;17.20;;
19651;SDS011;9974;52.146;14.668;2023-03-01T09:06:18;34.03;;;16.98;;
19651;SDS011;9974;52.146;14.668;2023-03-01T09:08:45;32.38;;;17.85;;
19651;SDS011;9974;52.146;14.668;2023-03-01T09:11:15;30.02;;;17.50;;
19651;SDS011;9974;52.146;14.668;2023-03-01T09:13:43;26.33;;;16.85;;
19651;SDS011;9974;52.146;14.668;2023-03-01T09:16:10;25.70;;;14.77;;
19651;SDS011;9974;52.146;14.668;2023-03-01T09:18:38;26.55;;;16.05;;
19651;SDS011;9974;52.146;14.668;2023-03-01T09:21:05;27.67;;;16.83;;
19651;SDS011;9974;52.146;14.668;2023-03-01T09:23:40;25.90;;;15.75;;
19651;SDS011;9974;52.146;14.668;2023-03-01T09:26:08;25.00;;;14.82;;
19651;SDS011;9974;52.146;14.668;2023-03-01T09:28:38;22.23;;;14.52;;
19651;SDS011;9974;52.146;14.668;2023-03-01T09:31:06;24.02;;;14.18;;
19651;SDS011;9974;52.146;14.668;2023-03-01T09:33:32;19.52;;;13.55;;
19651;SDS011;9974;52.146;14.668;2023-03-01T09:36:02;23.92;;;14.57;;
19651;SDS011;9974;52.146;14.668;2023-03-01T09:38:32;20.58;;;13.00;;
19651;SDS011;9974;52.146;14.668;2023-03-01T09:40:58;22.60;;;13.10;;
19651;SDS011;9974;52.146;14.668;2023-03-01T09:46:12;18.98;;;10.73;;
19651;SDS011;9974;52.146;14.668;2023-03-01T09:48:44;19.30;;;9.65;;
19651;SDS011;9974;52.146;14.668;2023-03-01T09:51:18;15.85;;;8.43;;
19651;SDS011;9974;52.146;14.668;2023-03-01T09:53:51;18.17;;;9.63;;
19651;SDS011;9974;52.146;14.668;2023-03-01T09:56:20;17.35;;;10.40;;
19651;SDS011;9974;52.146;14.668;2023-03-01T09:58:59;16.95;;;10.90;;
19651;SDS011;9974;52.146;14.668;2023-03-01T10:01:38;14.43;;;8.98;;
19651;SDS011;9974;52.146;14.668;2023-03-01T10:04:26;14.27;;;9.23;;
19651;SDS011;9974;52.146;14.668;2023-03-01T10:07:00;16.75;;;7.63;;
19651;SDS011;9974;52.146;14.668;2023-03-01T10:09:32;14.50;;;7.80;;
19651;SDS011;9974;52.146;14.668;2023-03-01T10:11:59;14.38;;;7.63;;
19651;SDS011;9974;52.146;14.668;2023-03-01T10:14:34;16.80;;;8.77;;
19651;SDS011;9974;52.146;14.668;2023-03-01T10:17:06;15.02;;;9.50;;
19651;SDS011;9974;52.146;14.668;2023-03-01T10:19:43;16.27;;;9.40;;
19651;SDS011;9974;52.146;14.668;2023-03-01T10:22:19;13.20;;;8.07;;
19651;SDS011;9974;52.146;14.668;2023-03-01T10:24:50;15.55;;;7.72;;
19651;SDS011;9974;52.146;14.668;2023-03-01T10:27:19;11.73;;;5.78;;
19651;SDS011;9974;52.146;14.668;2023-03-01T10:32:57;13.18;;;6.80;;
19651;SDS011;9974;52.146;14.668;2023-03-01T10:35:25;11.18;;;6.65;;
19651;SDS011;9974;52.146;14.668;2023-03-01T10:37:58;11.05;;;5.22;;
19651;SDS011;9974;52.146;14.668;2023-03-01T10:40:35;14.27;;;7.20;;
19651;SDS011;9974;52.146;14.668;2023-03-01T10:43:02;9.63;;;6.60;;
19651;SDS011;9974;52.146;14.668;2023-03-01T10:51:05;10.93;;;6.18;;
19651;SDS011;9974;52.146;14.668;2023-03-01T10:53:45;8.90;;;4.60;;
19651;SDS011;9974;52.146;14.668;2023-03-01T10:56:14;9.10;;;5.38;;
19651;SDS011;9974;52.146;14.668;2023-03-01T10:58:41;12.63;;;6.82;;
19651;SDS011;9974;52.146;14.668;2023-03-01T11:01:29;10.38;;;5.70;;
19651;SDS011;9974;52.146;14.668;2023-03-01T11:06:31;12.00;;;5.63;;
19651;SDS011;9974;52.146;14.668;2023-03-01T11:09:04;10.50;;;4.90;;
19651;SDS011;9974;52.146;14.668;2023-03-01T11:11:41;9.50;;;4.90;;
19651;SDS011;9974;52.146;14.668;2023-03-01T11:14:12;8.55;;;5.53;;
19651;SDS011;9974;52.146;14.668;2023-03-01T11:16:45;8.40;;;4.88;;
19651;SDS011;9974;52.146;14.668;2023-03-01T11:19:23;10.98;;;5.18;;
19651;SDS011;9974;52.146;14.668;2023-03-01T11:21:59;10.00;;;4.40;;
19651;SDS011;9974;52.146;14.668;2023-03-01T11:24:37;7.30;;;4.30;;
19651;SDS011;9974;52.146;14.668;2023-03-01T11:27:14;7.72;;;3.35;;
19651;SDS011;9974;52.146;14.668;2023-03-01T11:29:55;7.80;;;3.45;;
19651;SDS011;9974;52.146;14.668;2023-03-01T11:32:31;5.43;;;2.42;;
19651;SDS011;9974;52.146;14.668;2023-03-01T11:35:12;5.72;;;2.72;;
19651;SDS011;9974;52.146;14.668;2023-03-01T11:49:36;7.50;;;3.47;;
19651;SDS011;9974;52.146;14.668;2023-03-01T11:58:58;8.20;;;4.13;;
19651;SDS011;9974;52.146;14.668;2023-03-01T12:02:00;7.38;;;3.72;;
19651;SDS011;9974;52.146;14.668;2023-03-01T12:08:24;8.20;;;3.88;;
19651;SDS011;9974;52.146;14.668;2023-03-01T12:10:44;4.57;;;2.78;;
19651;SDS011;9974;52.146;14.668;2023-03-01T12:20:04;10.20;;;5.07;;
19651;SDS011;9974;52.146;14.668;2023-03-01T12:32:22;7.70;;;3.80;;
19651;SDS011;9974;52.146;14.668;2023-03-01T12:41:26;5.50;;;2.90;;
19651;SDS011;9974;52.146;14.668;2023-03-01T12:44:14;9.00;;;3.85;;
19651;SDS011;9974;52.146;14.668;2023-03-01T12:47:19;6.15;;;3.35;;
19651;SDS011;9974;52.146;14.668;2023-03-01T12:49:56;9.50;;;3.33;;
19651;SDS011;9974;52.146;14.668;2023-03-01T12:52:33;5.35;;;3.22;;
19651;SDS011;9974;52.146;14.668;2023-03-01T12:55:08;7.60;;;3.88;;
19651;SDS011;9974;52.146;14.668;2023-03-01T13:01:00;7.07;;;3.33;;
19651;SDS011;9974;52.146;14.668;2023-03-01T13:04:27;6.65;;;3.17;;
19651;SDS011;9974;52.146;14.668;2023-03-01T13:09:34;8.27;;;4.45;;
19651;SDS011;9974;52.146;14.668;2023-03-01T13:15:24;7.60;;;4.50;;
19651;SDS011;9974;52.146;14.668;2023-03-01T13:18:24;8.90;;;3.67;;
19651;SDS011;9974;52.146;14.668;2023-03-01T13:20:48;6.68;;;3.67;;
19651;SDS011;9974;52.146;14.668;2023-03-01T13:23:43;8.07;;;3.45;;
19651;SDS011;9974;52.146;14.668;2023-03-01T13:26:14;7.00;;;3.92;;
19651;SDS011;9974;52.146;14.668;2023-03-01T13:28:55;6.28;;;3.25;;
19651;SDS011;9974;52.146;14.668;2023-03-01T13:42:25;7.80;;;3.88;;
19651;SDS011;9974;52.146;14.668;2023-03-01T13:44:11;8.48;;;4.90;;
19651;SDS011;9974;52.146;14.668;2023-03-01T13:49:35;7.25;;;4.28;;
19651;SDS011;9974;52.146;14.668;2023-03-01T13:57:39;7.35;;;4.03;;
19651;SDS011;9974;52.146;14.668;2023-03-01T14:00:27;9.20;;;4.43;;
19651;SDS011;9974;52.146;14.668;2023-03-01T14:03:04;7.43;;;4.35;;
19651;SDS011;9974;52.146;14.668;2023-03-01T14:05:57;8.52;;;3.75;;
19651;SDS011;9974;52.146;14.668;2023-03-01T14:08:40;6.82;;;3.67;;
19651;SDS011;9974;52.146;14.668;2023-03-01T14:17:03;9.75;;;4.03;;
19651;SDS011;9974;52.146;14.668;2023-03-01T14:22:46;7.18;;;3.85;;
19651;SDS011;9974;52.146;14.668;2023-03-01T14:25:19;11.23;;;4.90;;
19651;SDS011;9974;52.146;14.668;2023-03-01T14:27:46;14.75;;;4.43;;
19651;SDS011;9974;52.146;14.668;2023-03-01T14:30:38;7.82;;;4.07;;
19651;SDS011;9974;52.146;14.668;2023-03-01T14:33:18;7.68;;;4.05;;
19651;SDS011;9974;52.146;14.668;2023-03-01T14:41:15;6.60;;;3.20;;
19651;SDS011;9974;52.146;14.668;2023-03-01T14:43:44;6.85;;;3.40;;
19651;SDS011;9974;52.146;14.668;2023-03-01T14:46:23;5.65;;;3.03;;
19651;SDS011;9974;52.146;14.668;2023-03-01T14:49:02;6.80;;;3.22;;
19651;SDS011;9974;52.146;14.668;2023-03-01T14:51:30;6.93;;;3.20;;
19651;SDS011;9974;52.146;14.668;2023-03-01T14:54:00;5.78;;;2.95;;
19651;SDS011;9974;52.146;14.668;2023-03-01T14:56:26;5.90;;;2.55;;
19651;SDS011;9974;52.146;14.668;2023-03-01T14:58:52;5.65;;;3.03;;
19651;SDS011;9974;52.146;14.668;2023-03-01T15:01:18;5.43;;;2.85;;
19651;SDS011;9974;52.146;14.668;2023-03-01T15:03:46;5.25;;;2.80;;
19651;SDS011;9974;52.146;14.668;2023-03-01T15:06:20;6.82;;;3.00;;
19651;SDS011;9974;52.146;14.668;2023-03-01T15:08:48;5.95;;;3.38;;
19651;SDS011;9974;52.146;14.668;2023-03-01T15:11:21;6.95;;;3.00;;
19651;SDS011;9974;52.146;14.668;2023-03-01T15:13:54;9.48;;;5.13;;
19651;SDS011;9974;52.146;14.668;2023-03-01T15:16:28;7.20;;;3.58;;
19651;SDS011;9974;52.146;14.668;2023-03-01T15:18:56;6.22;;;2.92;;
19651;SDS011;9974;52.146;14.668;2023-03-01T15:21:32;6.22;;;3.20;;
19651;SDS011;9974;52.146;14.668;2023-03-01T15:24:22;8.85;;;3.47;;
19651;SDS011;9974;52.146;14.668;2023-03-01T15:26:52;5.57;;;3.25;;
19651;SDS011;9974;52.146;14.668;2023-03-01T15:29:23;4.72;;;2.65;;
19651;SDS011;9974;52.146;14.668;2023-03-01T15:31:56;6.20;;;3.20;;
19651;SDS011;9974;52.146;14.668;2023-03-01T15:34:23;7.30;;;3.83;;
19651;SDS011;9974;52.146;14.668;2023-03-01T15:36:57;10.43;;;4.13;;
19651;SDS011;9974;52.146;14.668;2023-03-01T15:41:56;7.78;;;3.67;;
19651;SDS011;9974;52.146;14.668;2023-03-01T15:44:29;7.07;;;3.25;;
19651;SDS011;9974;52.146;14.668;2023-03-01T15:46:57;7.28;;;3.67;;
19651;SDS011;9974;52.146;14.668;2023-03-01T15:49:37;6.90;;;3.50;;
19651;SDS011;9974;52.146;14.668;2023-03-01T15:52:08;6.18;;;3.50;;
19651;SDS011;9974;52.146;14.668;2023-03-01T15:54:43;7.68;;;3.90;;
19651;SDS011;9974;52.146;14.668;2023-03-01T15:57:13;9.23;;;4.18;;
19651;SDS011;9974;52.146;14.668;2023-03-01T15:59:40;9.75;;;3.80;;
19651;SDS011;9974;52.146;14.668;2023-03-01T16:02:10;7.18;;;3.85;;
19651;SDS011;9974;52.146;14.668;2023-03-01T16:04:39;10.57;;;5.20;;
19651;SDS011;9974;52.146;14.668;2023-03-01T16:07:06;6.63;;;4.38;;
19651;SDS011;9974;52.146;14.668;2023-03-01T16:09:33;6.63;;;4.13;;
19651;SDS011;9974;52.146;14.668;2023-03-01T16:11:59;8.32;;;4.85;;
19651;SDS011;9974;52.146;14.668;2023-03-01T16:14:25;9.10;;;4.32;;
19651;SDS011;9974;52.146;14.668;2023-03-01T16:16:51;9.05;;;3.53;;
19651;SDS011;9974;52.146;14.668;2023-03-01T16:19:17;5.65;;;2.85;;
19651;SDS011;9974;52.146;14.668;2023-03-01T16:21:43;6.60;;;3.20;;
19651;SDS011;9974;52.146;14.668;2023-03-01T16:24:11;7.15;;;3.20;;
19651;SDS011;9974;52.146;14.668;2023-03-01T16:26:38;5.80;;;3.45;;
19651;SDS011;9974;52.146;14.668;2023-03-01T16:29:04;8.32;;;4.10;;
19651;SDS011;9974;52.146;14.668;2023-03-01T16:31:30;6.43;;;2.78;;
19651;SDS011;9974;52.146;14.668;2023-03-01T16:33:57;8.18;;;3.75;;
19651;SDS011;9974;52.146;14.668;2023-03-01T16:36:25;5.03;;;2.90;;
19651;SDS011;9974;52.146;14.668;2023-03-01T16:38:53;7.40;;;3.10;;
19651;SDS011;9974;52.146;14.668;2023-03-01T16:41:20;8.18;;;3.70;;